Time;durP1;ratioP1;P1;durP2;ratioP2;P2;SDS_P1;SDS_P2;PMS_P1;PMS_P2;Temp;Humidity;BMP_temperature;BMP_pressure;BME280_temperature;BME280_humidity;BME280_pressure;Samples;Min_cycle;Max_cycle;Signal;HPM_P1;HPM_P2
2022/10/26 00:01:11;;;;;;;31.05;18.87;;;;;;;9.55;100.00;99035.78;2011899;88;21038;-94
2022/10/26 00:04:12;;;;;;;27.70;19.05;;;;;;;9.54;100.00;99036.28;2012169;88;21102;-94
2022/10/26 00:07:13;;;;;;;32.63;19.52;;;;;;;9.53;100.00;99037.27;2012279;88;21014;-95
2022/10/26 00:10:14;;;;;;;28.95;19.62;;;;;;;9.51;100.00;99039.23;2012304;88;21002;-93
2022/10/26 00:13:15;;;;;;;30.05;18.27;;;;;;;9.51;100.00;99038.39;2012249;88;21161;-94
2022/10/26 00:16:15;;;;;;;25.77;18.37;;;;;;;9.51;100.00;99043.61;2012359;88;21082;-94
2022/10/26 00:19:16;;;;;;;23.50;17.62;;;;;;;9.48;100.00;99046.08;2012636;87;21466;-93
2022/10/26 00:22:17;;;;;;;27.00;17.55;;;;;;;9.46;100.00;99042.81;2014763;85;21246;-93
2022/10/26 00:25:18;;;;;;;19.32;15.13;;;;;;;9.44;100.00;99043.48;2015049;85;21015;-94
2022/10/26 00:28:19;;;;;;;20.40;14.78;;;;;;;9.41;100.00;99047.70;2012267;88;21074;-94
2022/10/26 00:31:19;;;;;;;21.15;15.03;;;;;;;9.40;100.00;99052.12;2012222;88;21545;-92
2022/10/26 00:34:20;;;;;;;24.25;17.48;;;;;;;9.38;100.00;99048.05;2012256;88;21601;-93
2022/10/26 00:37:21;;;;;;;17.20;14.25;;;;;;;9.37;100.00;99053.76;2015016;85;21059;-93
2022/10/26 00:40:21;;;;;;;21.10;15.23;;;;;;;9.37;100.00;99060.78;2014756;85;21529;-94
2022/10/26 00:43:22;;;;;;;23.10;15.15;;;;;;;9.35;100.00;99077.94;2012209;88;21565;-93
2022/10/26 00:46:23;;;;;;;23.47;15.10;;;;;;;9.37;100.00;99071.23;2012176;88;21038;-94
2022/10/26 00:49:24;;;;;;;18.00;14.58;;;;;;;9.43;100.00;99063.25;2036075;87;21552;-93
2022/10/26 00:52:24;;;;;;;19.77;16.00;;;;;;;9.49;100.00;99064.70;2036416;86;21026;-94
2022/10/26 00:55:25;;;;;;;21.55;14.80;;;;;;;9.53;100.00;99068.63;2035386;87;21045;-92
2022/10/26 00:58:26;;;;;;;25.12;16.93;;;;;;;9.58;100.00;99067.62;2035067;87;21588;-93
2022/10/26 01:01:26;;;;;;;21.42;15.15;;;;;;;9.63;100.00;99062.73;2035185;87;21525;-93
2022/10/26 01:04:27;;;;;;;17.65;14.00;;;;;;;9.67;100.00;99068.45;2035198;87;21096;-94
2022/10/26 01:07:28;;;;;;;19.25;13.48;;;;;;;9.66;100.00;99062.89;2035144;87;20991;-93
2022/10/26 01:10:29;;;;;;;21.45;15.03;;;;;;;9.64;100.00;99060.94;2035087;87;21005;-94
2022/10/26 01:13:29;;;;;;;24.20;16.48;;;;;;;9.62;100.00;99060.30;2035182;87;21064;-93
2022/10/26 01:16:30;;;;;;;22.55;14.87;;;;;;;9.57;100.00;99052.12;2035060;87;21057;-94
2022/10/26 01:19:31;;;;;;;21.25;14.45;;;;;;;9.53;100.00;99057.36;2035008;87;21549;-94
2022/10/26 01:22:31;;;;;;;19.15;14.65;;;;;;;9.48;100.00;99053.91;2038072;85;21235;-92
2022/10/26 01:25:32;;;;;;;19.67;14.90;;;;;;;9.46;100.00;99060.30;2039626;85;21239;-93
2022/10/26 01:28:33;;;;;;;20.90;15.68;;;;;;;9.43;100.00;99059.33;2038970;85;21627;-94
2022/10/26 01:31:33;;;;;;;24.25;16.55;;;;;;;9.38;100.00;99054.58;2035670;87;21017;-94
2022/10/26 01:34:34;;;;;;;22.70;15.90;;;;;;;9.35;100.00;99053.61;2036017;87;21569;-93
2022/10/26 01:37:35;;;;;;;22.05;14.73;;;;;;;9.32;100.00;99057.34;2035773;87;21053;-95
2022/10/26 01:40:36;;;;;;;24.07;14.90;;;;;;;9.30;100.00;99066.33;2035239;87;21040;-94
2022/10/26 01:43:36;;;;;;;15.98;13.98;;;;;;;9.26;100.00;99065.03;2035251;87;21552;-93
2022/10/26 01:46:37;;;;;;;23.50;16.45;;;;;;;9.23;100.00;99067.95;2036385;86;21076;-92
2022/10/26 01:49:38;;;;;;;20.68;16.12;;;;;;;9.19;100.00;99064.86;2028592;87;21073;-93
2022/10/26 01:52:39;;;;;;;21.90;15.65;;;;;;;9.13;100.00;99061.08;2026105;87;21062;-94
2022/10/26 01:55:40;;;;;;;23.70;15.72;;;;;;;9.10;100.00;99069.74;2026388;87;21546;-94
2022/10/26 01:58:41;;;;;;;21.80;15.18;;;;;;;9.05;100.00;99067.62;2026221;87;21152;-93
2022/10/26 02:01:43;;;;;;;24.47;15.50;;;;;;;9.04;100.00;99070.38;2034646;87;21081;-92
2022/10/26 02:04:43;;;;;;;25.77;17.17;;;;;;;9.00;100.00;99069.08;2034285;86;21081;-93
2022/10/26 02:07:45;;;;;;;16.75;13.90;;;;;;;8.94;100.00;99060.08;2034587;87;21002;-93
2022/10/26 02:10:45;;;;;;;21.57;14.70;;;;;;;8.93;100.00;99062.86;2034323;88;21116;-93
2022/10/26 02:13:46;;;;;;;19.55;14.15;;;;;;;8.90;100.00;99065.80;2034415;88;21060;-94
2022/10/26 02:16:47;;;;;;;19.57;14.80;;;;;;;8.89;100.00;99064.17;2034306;87;21021;-93
2022/10/26 02:19:47;;;;;;;20.88;13.90;;;;;;;8.87;100.00;99067.41;2035080;88;21592;-93
2022/10/26 02:22:48;;;;;;;20.55;14.05;;;;;;;8.84;100.00;99070.67;2036212;88;21064;-94
2022/10/26 02:25:49;;;;;;;20.62;15.30;;;;;;;8.81;100.00;99069.69;2037949;85;20962;-92
2022/10/26 02:28:50;;;;;;;18.32;14.53;;;;;;;8.81;100.00;99072.79;2035896;85;21093;-93
2022/10/26 02:31:50;;;;;;;23.47;14.58;;;;;;;8.80;100.00;99074.59;2034221;88;21026;-94
2022/10/26 02:34:51;;;;;;;25.68;14.28;;;;;;;8.77;100.00;99081.41;2034375;87;21021;-94
2022/10/26 02:37:52;;;;;;;20.00;14.23;;;;;;;8.73;100.00;99082.72;2036485;88;21037;-92
2022/10/26 02:40:53;;;;;;;22.17;14.18;;;;;;;8.70;100.00;99083.05;2038191;85;21010;-91
2022/10/26 02:43:53;;;;;;;17.77;14.25;;;;;;;8.67;100.00;99084.65;2036057;85;21120;-94
2022/10/26 02:46:54;;;;;;;20.15;14.33;;;;;;;8.65;100.00;99087.09;2034399;88;21029;-93
2022/10/26 02:49:55;;;;;;;19.30;13.88;;;;;;;8.62;100.00;99088.23;2022271;86;21039;-93
2022/10/26 02:52:55;;;;;;;18.65;14.65;;;;;;;8.60;100.00;99094.59;2015195;88;21062;-93
2022/10/26 02:55:57;;;;;;;21.00;14.73;;;;;;;8.57;100.00;99098.32;2015167;88;21090;-94
2022/10/26 02:58:57;;;;;;;22.32;14.20;;;;;;;8.57;100.00;99097.50;2015032;88;21098;-93
2022/10/26 03:01:58;;;;;;;18.55;13.40;;;;;;;8.54;100.00;99099.46;2015280;88;21015;-94
2022/10/26 03:04:59;;;;;;;19.70;14.43;;;;;;;8.49;100.00;99101.70;2015315;88;21130;-94
2022/10/26 03:08:00;;;;;;;20.75;15.03;;;;;;;8.45;100.00;99101.70;2015202;88;21594;-92
2022/10/26 03:11:01;;;;;;;19.82;14.73;;;;;;;8.46;100.00;99102.52;2015419;88;21062;-93
2022/10/26 03:14:01;;;;;;;19.45;14.47;;;;;;;8.48;100.00;99105.78;2015285;88;21082;-93
2022/10/26 03:17:02;;;;;;;19.98;13.98;;;;;;;8.49;100.00;99109.53;2012455;88;21011;-93
2022/10/26 03:20:03;;;;;;;22.30;14.45;;;;;;;8.50;100.00;99113.81;2012470;88;21049;-93
2022/10/26 03:23:04;;;;;;;18.75;12.37;;;;;;;8.51;100.00;99112.02;2012483;88;21102;-93
2022/10/26 03:26:04;;;;;;;20.57;14.28;;;;;;;8.51;100.00;99110.22;2012548;88;21495;-93
2022/10/26 03:29:05;;;;;;;21.85;14.35;;;;;;;8.47;100.00;99115.89;2012457;88;21561;-93
2022/10/26 03:32:06;;;;;;;20.10;14.35;;;;;;;8.41;100.00;99108.22;2012564;87;21039;-94
2022/10/26 03:35:07;;;;;;;20.23;15.13;;;;;;;8.38;100.00;99114.22;2012668;88;20975;-94
2022/10/26 03:38:07;;;;;;;24.27;15.90;;;;;;;8.34;100.00;99109.78;2012542;88;21030;-94
2022/10/26 03:41:08;;;;;;;23.67;16.12;;;;;;;8.32;100.00;99109.13;2012530;88;20975;-93
2022/10/26 03:44:09;;;;;;;25.82;15.68;;;;;;;8.31;100.00;99110.07;2012357;88;21050;-93
2022/10/26 03:47:09;;;;;;;20.12;14.47;;;;;;;8.29;100.00;99105.50;2012508;88;21506;-94
2022/10/26 03:50:11;;;;;;;17.92;14.25;;;;;;;8.26;100.00;99106.64;2014515;87;21066;-92
2022/10/26 03:53:11;;;;;;;18.27;12.95;;;;;;;8.25;100.00;99116.74;2026274;88;21057;-94
2022/10/26 03:56:12;;;;;;;19.48;13.18;;;;;;;8.25;100.00;99115.93;2026522;87;21048;-93
2022/10/26 03:59:13;;;;;;;21.02;14.40;;;;;;;8.21;100.00;99120.62;2037542;87;21073;-94
2022/10/26 04:02:14;;;;;;;15.72;11.65;;;;;;;8.15;100.00;99119.13;2026513;88;21037;-94
2022/10/26 04:05:15;;;;;;;16.90;12.95;;;;;;;8.15;100.00;99125.66;2026573;87;20975;-94
2022/10/26 04:08:16;;;;;;;17.05;12.75;;;;;;;8.10;100.00;99122.19;2026868;86;21026;-93
2022/10/26 04:11:16;;;;;;;16.27;12.40;;;;;;;8.10;100.00;99127.89;2030215;85;21018;-93
2022/10/26 04:14:17;;;;;;;30.27;15.45;;;;;;;8.10;100.00;99123.49;2040905;85;21029;-92
2022/10/26 04:17:18;;;;;;;37.15;17.48;;;;;;;8.05;100.00;99134.89;2036922;84;21045;-94
2022/10/26 04:20:19;;;;;;;33.02;16.70;;;;;;;8.05;100.00;99127.55;2034436;88;21014;-94
2022/10/26 04:23:19;;;;;;;24.65;15.25;;;;;;;8.04;100.00;99121.97;2034804;86;21029;-93
2022/10/26 04:26:20;;;;;;;25.12;14.18;;;;;;;8.04;100.00;99127.19;2032533;87;21058;-93
2022/10/26 04:29:21;;;;;;;22.95;13.50;;;;;;;8.03;100.00;99128.98;2039603;87;21042;-92
2022/10/26 04:32:21;;;;;;;21.02;13.58;;;;;;;8.02;100.00;99127.84;2035512;88;21053;-91
2022/10/26 04:35:22;;;;;;;18.25;13.83;;;;;;;7.98;100.00;99122.94;2035499;88;21006;-91
2022/10/26 04:38:23;;;;;;;21.45;15.30;;;;;;;7.97;100.00;99121.79;2035959;88;21010;-91
2022/10/26 04:41:23;;;;;;;20.37;13.65;;;;;;;7.96;100.00;99126.67;2036191;85;21009;-89
2022/10/26 04:44:24;;;;;;;20.17;14.73;;;;;;;7.90;100.00;99126.78;2038953;85;21465;-90
2022/10/26 04:47:25;;;;;;;20.02;14.43;;;;;;;7.86;100.00;99127.23;2036006;87;21524;-92
2022/10/26 04:50:26;;;;;;;20.10;14.63;;;;;;;7.82;100.00;99130.64;2029160;86;21126;-93
2022/10/26 04:53:27;;;;;;;18.32;14.63;;;;;;;7.81;100.00;99134.22;2026892;88;21173;-92
2022/10/26 04:56:28;;;;;;;18.00;14.53;;;;;;;7.79;100.00;99127.52;2021471;88;21049;-92
2022/10/26 04:59:29;;;;;;;22.20;15.50;;;;;;;7.79;100.00;99133.55;2014333;88;21023;-94
2022/10/26 05:02:30;;;;;;;22.27;16.85;;;;;;;7.82;100.00;99133.24;2014160;88;21074;-91
2022/10/26 05:05:30;;;;;;;20.95;16.15;;;;;;;7.87;100.00;99132.31;2014205;88;21482;-96
2022/10/26 05:08:33;;;;;;;20.15;16.45;;;;;;;7.90;100.00;99130.70;2013711;88;21011;-94
2022/10/26 05:11:34;;;;;;;24.07;17.57;;;;;;;7.93;100.00;99132.17;2013171;88;21534;-91
2022/10/26 05:14:34;;;;;;;27.22;19.32;;;;;;;7.96;100.00;99134.50;2014825;88;21059;-91
2022/10/26 05:17:35;;;;;;;27.35;18.42;;;;;;;7.95;100.00;99136.74;2014810;88;21070;-93
2022/10/26 05:20:36;;;;;;;26.80;19.20;;;;;;;7.98;100.00;99135.16;2014830;88;20999;-91
2022/10/26 05:23:36;;;;;;;26.77;19.45;;;;;;;7.99;100.00;99129.78;2015176;88;21003;-91
2022/10/26 05:26:37;;;;;;;21.55;17.48;;;;;;;7.99;100.00;99132.39;2014329;88;21039;-93
2022/10/26 05:29:40;;;;;;;24.32;17.20;;;;;;;8.01;100.00;99139.23;2013592;88;21015;-95
2022/10/26 05:32:41;;;;;;;27.48;19.90;;;;;;;7.99;100.00;99140.22;2014917;88;21086;-96
2022/10/26 05:35:41;;;;;;;23.87;17.25;;;;;;;7.98;100.00;99144.28;2013986;88;21019;-95
2022/10/26 05:38:44;;;;;;;21.02;15.85;;;;;;;8.01;100.00;99152.28;2012701;88;21093;-86
2022/10/26 05:41:45;;;;;;;23.87;17.57;;;;;;;8.03;100.00;99153.76;2012634;88;21133;-87
2022/10/26 05:44:46;;;;;;;24.63;17.95;;;;;;;8.10;100.00;99161.80;2012491;88;21562;-87
2022/10/26 05:47:50;;;;;;;24.20;18.23;;;;;;;8.16;100.00;99162.50;2012427;88;21564;-89
2022/10/26 05:50:50;;;;;;;23.80;17.25;;;;;;;8.22;100.00;99162.69;2033249;87;21078;-89
2022/10/26 05:53:53;;;;;;;24.45;17.17;;;;;;;8.28;100.00;99165.99;2035437;87;21060;-88
2022/10/26 05:56:54;;;;;;;21.30;17.25;;;;;;;8.32;100.00;99181.33;2035681;87;21068;-89
2022/10/26 05:59:54;;;;;;;20.45;17.65;;;;;;;8.34;100.00;99180.23;2035614;87;21006;-91
2022/10/26 06:02:55;;;;;;;22.52;17.20;;;;;;;8.40;100.00;99186.63;2035979;87;21093;-91
2022/10/26 06:05:56;;;;;;;22.62;17.80;;;;;;;8.47;100.00;99191.58;2035178;87;21038;-91
2022/10/26 06:08:57;;;;;;;22.50;16.90;;;;;;;8.57;100.00;99190.16;2035117;87;21538;-89
2022/10/26 06:11:57;;;;;;;20.65;16.20;;;;;;;8.65;100.00;99189.72;2035116;87;21585;-84
2022/10/26 06:14:58;;;;;;;23.42;17.27;;;;;;;8.73;100.00;99196.29;2035581;87;21013;-91
2022/10/26 06:17:59;;;;;;;24.30;17.05;;;;;;;8.86;100.00;99195.84;2035327;87;21041;-91
2022/10/26 06:21:00;;;;;;;22.35;16.45;;;;;;;8.93;100.00;99196.86;2035299;87;21084;-90
2022/10/26 06:24:00;;;;;;;27.20;17.90;;;;;;;9.01;100.00;99190.86;2035701;87;21149;-93
2022/10/26 06:27:01;;;;;;;22.52;16.95;;;;;;;9.17;100.00;99195.33;2036344;87;21010;-90
2022/10/26 06:30:02;;;;;;;24.10;16.73;;;;;;;9.30;100.00;99195.68;2036588;87;21042;-90
2022/10/26 06:33:03;;;;;;;22.95;16.02;;;;;;;9.40;100.00;99205.02;2035602;87;21580;-93
2022/10/26 06:36:03;;;;;;;20.43;15.75;;;;;;;9.46;100.00;99198.34;2035702;87;21017;-89
2022/10/26 06:39:04;;;;;;;17.40;15.38;;;;;;;9.52;100.00;99204.24;2035337;87;21006;-90
2022/10/26 06:42:06;;;;;;;21.52;14.90;;;;;;;9.62;100.00;99208.83;2035938;87;21101;-89
2022/10/26 06:45:06;;;;;;;17.87;14.00;;;;;;;9.72;100.00;99209.98;2035838;87;21014;-92
2022/10/26 06:48:07;;;;;;;18.73;15.28;;;;;;;9.89;100.00;99209.52;2036021;87;21065;-89
2022/10/26 06:51:08;;;;;;;16.17;13.60;;;;;;;10.02;100.00;99211.13;2028184;87;21034;-89
2022/10/26 06:54:09;;;;;;;18.02;14.80;;;;;;;10.17;100.00;99216.05;2026850;87;21569;-92
2022/10/26 06:57:09;;;;;;;25.08;17.30;;;;;;;10.31;100.00;99211.15;2027479;87;21085;-89
2022/10/26 07:00:10;;;;;;;21.25;16.50;;;;;;;10.40;100.00;99218.00;2027136;87;21034;-94
2022/10/26 07:03:11;;;;;;;27.42;18.15;;;;;;;10.51;100.00;99213.72;2026906;87;21657;-92
2022/10/26 07:06:12;;;;;;;22.07;16.45;;;;;;;10.59;100.00;99216.83;2026500;87;21005;-86
2022/10/26 07:09:12;;;;;;;18.82;14.87;;;;;;;10.69;100.00;99222.19;2026418;88;20994;-93
2022/10/26 07:12:13;;;;;;;18.92;15.15;;;;;;;10.73;100.00;99219.58;2026393;88;21058;-93
2022/10/26 07:15:14;;;;;;;19.02;13.72;;;;;;;10.78;100.00;99226.42;2025997;88;21041;-93
2022/10/26 07:18:15;;;;;;;18.65;13.85;;;;;;;10.86;100.00;99228.70;2026261;87;20994;-93
2022/10/26 07:21:15;;;;;;;15.08;12.58;;;;;;;10.97;100.00;99233.57;2037492;87;21045;-92
2022/10/26 07:24:16;;;;;;;16.32;13.03;;;;;;;11.06;100.00;99230.78;2035719;87;21053;-93
2022/10/26 07:27:22;;;;;;;18.15;12.25;;;;;;;11.18;100.00;99231.70;2034195;87;21033;-93
2022/10/26 07:30:20;;;;;;;14.10;11.90;;;;;;;11.27;100.00;99237.23;2014961;88;21978;-92
2022/10/26 07:33:21;;;;;;;16.85;12.82;;;;;;;11.35;100.00;99230.65;2034347;88;21140;-93
2022/10/26 07:36:22;;;;;;;19.87;12.18;;;;;;;11.46;100.00;99231.56;2034258;87;21505;-93
2022/10/26 07:39:23;;;;;;;15.28;13.68;;;;;;;11.56;100.00;99233.97;2034413;86;20994;-94
2022/10/26 07:42:24;;;;;;;14.85;12.45;;;;;;;11.62;100.00;99230.66;2034303;87;21077;-94
2022/10/26 07:45:24;;;;;;;15.60;12.05;;;;;;;11.69;100.00;99237.64;2034316;88;21121;-92
2022/10/26 07:48:25;;;;;;;13.98;11.48;;;;;;;11.77;100.00;99236.77;2034506;87;20998;-91
2022/10/26 07:51:26;;;;;;;13.62;11.22;;;;;;;11.84;100.00;99236.94;2021524;88;21054;-93
2022/10/26 07:54:27;;;;;;;13.98;10.82;;;;;;;11.91;100.00;99236.56;2012458;88;21109;-92
2022/10/26 07:57:28;;;;;;;11.60;10.38;;;;;;;11.98;100.00;99237.50;2012540;88;21079;-92
2022/10/26 08:00:28;;;;;;;14.45;11.45;;;;;;;12.05;100.00;99237.09;2012474;88;21010;-93
2022/10/26 08:03:29;;;;;;;14.18;10.13;;;;;;;12.13;100.00;99236.22;2012951;88;21113;-93
2022/10/26 08:06:30;;;;;;;14.35;10.70;;;;;;;12.24;100.00;99237.09;2012537;88;21058;-93
2022/10/26 08:09:31;;;;;;;14.18;10.88;;;;;;;12.31;100.00;99239.34;2012642;88;21605;-93
2022/10/26 08:12:32;;;;;;;16.93;12.00;;;;;;;12.40;100.00;99234.83;2014588;88;21046;-93
2022/10/26 08:15:32;;;;;;;14.10;11.28;;;;;;;12.46;100.00;99238.88;2015964;85;20975;-92
2022/10/26 08:18:33;;;;;;;18.17;11.83;;;;;;;12.52;100.00;99231.58;2016906;88;21003;-91
2022/10/26 08:21:34;;;;;;;14.23;11.60;;;;;;;12.60;100.00;99233.81;2015470;85;21042;-93
2022/10/26 08:24:34;;;;;;;14.43;10.80;;;;;;;12.63;100.00;99238.73;2013146;88;21039;-94
2022/10/26 08:27:35;;;;;;;14.13;11.00;;;;;;;12.72;100.00;99238.97;2013282;88;20987;-93
2022/10/26 08:30:36;;;;;;;16.00;11.08;;;;;;;12.77;100.00;99233.97;2012987;88;21044;-93
2022/10/26 08:33:37;;;;;;;13.00;10.43;;;;;;;12.80;100.00;99238.85;2013329;88;21019;-93
2022/10/26 08:36:37;;;;;;;15.45;11.30;;;;;;;12.84;100.00;99245.39;2016397;85;21039;-92
2022/10/26 08:39:38;;;;;;;14.15;11.35;;;;;;;12.91;100.00;99243.68;2013043;88;21029;-93
2022/10/26 08:42:39;;;;;;;16.75;10.78;;;;;;;12.94;100.00;99241.99;2012404;88;21331;-93
2022/10/26 08:45:40;;;;;;;11.38;8.70;;;;;;;12.97;100.00;99244.75;2012305;88;21387;-93
2022/10/26 08:48:41;;;;;;;14.35;10.30;;;;;;;13.03;100.00;99242.22;2012952;88;21034;-94
2022/10/26 08:51:41;;;;;;;10.18;9.18;;;;;;;13.10;100.00;99243.12;2019042;85;21099;-92
2022/10/26 08:54:42;;;;;;;16.75;10.70;;;;;;;13.19;100.00;99244.34;2026793;88;21073;-93
2022/10/26 08:57:43;;;;;;;14.23;10.25;;;;;;;13.24;100.00;99255.95;2026410;87;21055;-93
2022/10/26 09:00:44;;;;;;;11.28;8.73;;;;;;;13.31;100.00;99251.59;2026284;88;21097;-94
2022/10/26 09:03:44;;;;;;;13.85;9.40;;;;;;;13.40;100.00;99254.94;2026230;88;21493;-95
2022/10/26 09:06:45;;;;;;;10.72;8.95;;;;;;;13.47;100.00;99257.16;2026443;88;21050;-94
2022/10/26 09:09:46;;;;;;;13.55;8.28;;;;;;;13.53;100.00;99257.74;2026414;88;21086;-94
2022/10/26 09:12:47;;;;;;;11.50;9.18;;;;;;;13.59;100.00;99262.24;2026310;88;21062;-94
2022/10/26 09:15:47;;;;;;;12.15;9.10;;;;;;;13.62;100.00;99264.52;2026292;88;21597;-93
2022/10/26 09:18:49;;;;;;;13.48;9.53;;;;;;;13.72;100.00;99264.73;2025623;88;21578;-93
2022/10/26 09:21:49;;;;;;;12.33;8.70;;;;;;;13.80;100.00;99265.39;2026291;88;21045;-93
2022/10/26 09:24:50;;;;;;;10.20;7.45;;;;;;;13.88;100.00;99264.47;2026240;88;21046;-94
2022/10/26 09:27:51;;;;;;;16.52;8.53;;;;;;;13.91;100.00;99269.37;2026201;88;21362;-94
2022/10/26 09:30:52;;;;;;;12.13;7.97;;;;;;;13.97;100.00;99267.29;2026395;88;21030;-93
2022/10/26 09:33:53;;;;;;;11.35;6.67;;;;;;;14.16;100.00;99269.80;2026267;88;21509;-94
2022/10/26 09:36:58;;;;;;;9.65;5.87;;;;;;;14.16;100.00;99269.80;2028085;88;21030;-94
2022/10/26 09:39:56;;;;;;;9.45;6.15;;;;;;;14.25;100.00;99267.34;2026476;88;21061;-93
2022/10/26 09:42:57;;;;;;;11.43;6.75;;;;;;;14.31;100.00;99269.73;2026274;88;21073;-94
2022/10/26 09:45:58;;;;;;;8.70;6.15;;;;;;;14.38;100.00;99264.02;2026289;88;21049;-93
2022/10/26 09:48:58;;;;;;;11.08;6.67;;;;;;;14.39;100.00;99270.41;2026261;88;21019;-93
2022/10/26 09:51:59;;;;;;;13.10;7.65;;;;;;;14.38;100.00;99270.61;2017703;88;21179;-93
2022/10/26 09:55:00;;;;;;;8.05;6.37;;;;;;;14.32;100.00;99269.54;2012193;88;20983;-92
2022/10/26 09:58:01;;;;;;;7.75;6.62;;;;;;;14.31;100.00;99273.18;2012235;88;21077;-93
2022/10/26 10:01:02;;;;;;;9.05;7.33;;;;;;;14.32;100.00;99270.86;2012205;88;21030;-93
2022/10/26 10:04:03;;;;;;;8.20;6.97;;;;;;;14.35;100.00;99277.55;2012746;88;21058;-93
2022/10/26 10:07:03;;;;;;;7.60;6.85;;;;;;;14.39;100.00;99274.88;2012253;88;21050;-93
2022/10/26 10:10:04;;;;;;;9.23;7.00;;;;;;;14.40;100.00;99277.31;2012319;88;20999;-93
2022/10/26 10:13:05;;;;;;;7.15;6.45;;;;;;;14.44;100.00;99276.41;2012355;88;21354;-94
2022/10/26 10:16:06;;;;;;;11.35;6.10;;;;;;;14.49;100.00;99276.20;2012317;88;20991;-93
2022/10/26 10:19:07;;;;;;;5.97;5.10;;;;;;;14.52;100.00;99280.27;2012213;88;21043;-94
2022/10/26 10:22:07;;;;;;;9.03;5.47;;;;;;;14.58;100.00;99282.66;2012959;87;21030;-92
2022/10/26 10:25:08;;;;;;;5.17;4.45;;;;;;;14.57;100.00;99280.52;2014968;88;21025;-92
2022/10/26 10:28:09;;;;;;;6.67;4.95;;;;;;;14.60;100.00;99280.12;2014493;87;21609;-93
2022/10/26 10:31:10;;;;;;;6.87;4.62;;;;;;;14.61;100.00;99277.80;2013830;88;21589;-91
2022/10/26 10:34:11;;;;;;;7.00;4.50;;;;;;;14.60;100.00;99280.63;2012825;88;21055;-94
2022/10/26 10:37:11;;;;;;;11.75;5.05;;;;;;;14.62;100.00;99279.42;2013120;88;21023;-91
2022/10/26 10:40:12;;;;;;;12.75;5.50;;;;;;;14.69;100.00;99273.70;2016144;86;21011;-94
2022/10/26 10:43:13;;;;;;;11.18;5.37;;;;;;;14.76;100.00;99277.20;2011937;88;21563;-92
2022/10/26 10:46:14;;;;;;;7.70;4.72;;;;;;;14.89;100.00;99267.75;2012251;88;20971;-92
2022/10/26 10:49:15;;;;;;;7.70;5.22;;;;;;;15.03;100.00;99261.05;2012403;88;21069;-93
2022/10/26 10:52:16;;;;;;;5.65;4.40;;;;;;;15.20;100.00;99268.14;2012271;87;21110;-92
2022/10/26 10:55:17;;;;;;;6.35;3.60;;;;;;;15.34;100.00;99265.85;2016352;88;21011;-92
2022/10/26 10:58:17;;;;;;;4.33;3.72;;;;;;;15.50;100.00;99267.84;2025275;87;21116;-93
2022/10/26 11:01:18;;;;;;;6.37;3.30;;;;;;;15.62;100.00;99269.73;2026223;86;20986;-93
2022/10/26 11:04:19;;;;;;;5.80;3.87;;;;;;;15.77;100.00;99266.95;2026550;88;21053;-93
2022/10/26 11:07:20;;;;;;;7.60;3.85;;;;;;;15.87;100.00;99269.20;2027738;88;21033;-93
2022/10/26 11:10:21;;;;;;;5.60;3.10;;;;;;;16.04;100.00;99267.00;2026108;88;21058;-93
2022/10/26 11:13:21;;;;;;;5.28;3.17;;;;;;;16.23;100.00;99265.39;2026451;88;21073;-92
2022/10/26 11:16:22;;;;;;;4.05;3.10;;;;;;;16.40;100.00;99261.34;2026501;87;21058;-93
2022/10/26 11:19:23;;;;;;;5.80;2.77;;;;;;;16.65;100.00;99263.67;2026414;88;21542;-93
2022/10/26 11:22:24;;;;;;;3.72;2.72;;;;;;;16.89;100.00;99265.38;2026609;88;21034;-93
2022/10/26 11:25:27;;;;;;;10.25;3.60;;;;;;;17.01;100.00;99263.73;2026499;88;21030;-94
2022/10/26 11:28:27;;;;;;;7.03;4.03;;;;;;;17.03;100.00;99265.14;2026579;88;21042;-93
2022/10/26 11:31:28;;;;;;;6.00;3.02;;;;;;;17.00;100.00;99270.02;2026517;88;21033;-93
2022/10/26 11:34:29;;;;;;;5.10;3.40;;;;;;;17.03;100.00;99261.69;2026733;88;22134;-94
2022/10/26 11:37:30;;;;;;;4.55;3.25;;;;;;;17.03;100.00;99261.69;2026521;88;21137;-95
2022/10/26 11:40:31;;;;;;;3.40;3.10;;;;;;;16.99;100.00;99262.59;2026461;88;21517;-92
2022/10/26 11:43:32;;;;;;;3.50;2.90;;;;;;;16.90;100.00;99265.16;2026504;88;21097;-94
2022/10/26 11:46:32;;;;;;;4.85;2.70;;;;;;;16.82;100.00;99266.70;2026414;88;20982;-92
2022/10/26 11:49:33;;;;;;;4.70;2.87;;;;;;;16.77;100.00;99267.84;2026470;88;21053;-91
2022/10/26 11:52:34;;;;;;;6.25;2.52;;;;;;;16.74;100.00;99264.30;2024328;88;21038;-91
2022/10/26 11:55:35;;;;;;;6.37;3.00;;;;;;;16.74;100.00;99267.75;2013599;88;21031;-91
2022/10/26 11:58:36;;;;;;;2.00;1.87;;;;;;;16.76;100.00;99266.22;2012305;88;21082;-93
2022/10/26 12:01:36;;;;;;;3.10;2.02;;;;;;;16.76;100.00;99260.94;2012107;88;21090;-92
2022/10/26 12:04:37;;;;;;;3.60;2.80;;;;;;;16.78;100.00;99264.17;2012332;88;21014;-92
2022/10/26 12:07:38;;;;;;;2.47;1.90;;;;;;;16.75;100.00;99266.73;2012545;88;21066;-91
2022/10/26 12:10:39;;;;;;;4.25;2.00;;;;;;;16.80;100.00;99264.77;2012431;88;21030;-93
2022/10/26 12:13:40;;;;;;;5.17;2.37;;;;;;;16.79;100.00;99259.19;2012326;88;21065;-92
2022/10/26 12:16:40;;;;;;;1.75;1.65;;;;;;;16.80;100.00;99259.48;2012250;88;21034;-93
2022/10/26 12:19:41;;;;;;;6.85;3.30;;;;;;;16.75;100.00;99258.80;2012330;88;21030;-94
2022/10/26 12:22:42;;;;;;;4.58;2.25;;;;;;;16.69;100.00;99262.77;2012197;88;21585;-93
2022/10/26 12:25:43;;;;;;;4.25;2.25;;;;;;;16.69;100.00;99259.61;2012360;88;21007;-94
2022/10/26 12:28:44;;;;;;;5.92;2.22;;;;;;;16.61;100.00;99256.33;2012287;87;21122;-93
2022/10/26 12:31:44;;;;;;;3.52;2.17;;;;;;;16.60;100.00;99249.42;2012369;88;21007;-94
2022/10/26 12:34:45;;;;;;;4.58;2.00;;;;;;;16.55;100.00;99251.86;2012308;88;21034;-92
2022/10/26 12:37:46;;;;;;;4.37;2.42;;;;;;;16.50;100.00;99250.66;2012585;88;21575;-92
2022/10/26 12:40:47;;;;;;;4.87;2.42;;;;;;;16.50;100.00;99260.42;2012996;87;21058;-93
2022/10/26 12:43:48;;;;;;;4.75;2.62;;;;;;;16.48;100.00;99263.27;2014993;87;21055;-92
2022/10/26 12:46:49;;;;;;;5.03;2.45;;;;;;;16.43;100.00;99260.41;2012589;88;21482;-91
2022/10/26 12:49:49;;;;;;;3.50;2.10;;;;;;;16.42;100.00;99257.97;2012363;88;21070;-91
2022/10/26 12:52:50;;;;;;;4.78;2.15;;;;;;;16.43;100.00;99257.77;2010239;88;21094;-91
2022/10/26 12:55:51;;;;;;;2.72;2.30;;;;;;;16.43;100.00;99258.28;2010582;88;20990;-91
2022/10/26 12:58:52;;;;;;;5.47;2.80;;;;;;;16.36;100.00;99254.30;2013192;89;21031;-92
2022/10/26 13:01:53;;;;;;;4.60;2.30;;;;;;;16.36;100.00;99252.17;2009802;89;21110;-91
2022/10/26 13:04:53;;;;;;;5.12;1.75;;;;;;;16.35;100.00;99256.65;2012030;88;21545;-90
2022/10/26 13:07:54;;;;;;;8.25;3.00;;;;;;;16.38;100.00;99258.91;2012256;88;21046;-92
2022/10/26 13:10:55;;;;;;;3.33;1.60;;;;;;;16.43;100.00;99259.09;1966473;91;21084;-90
2022/10/26 13:13:56;;;;;;;5.03;2.30;;;;;;;16.39;100.00;99252.59;2015290;88;21615;-91
2022/10/26 13:16:56;;;;;;;2.85;2.42;;;;;;;16.34;100.00;99255.02;2015088;88;21007;-92
2022/10/26 13:19:57;;;;;;;5.80;2.55;;;;;;;16.31;100.00;99258.08;2014969;88;21078;-91
2022/10/26 13:22:58;;;;;;;4.40;2.47;;;;;;;16.26;100.00;99259.70;2015233;88;21553;-91
2022/10/26 13:25:59;;;;;;;3.70;2.50;;;;;;;16.21;100.00;99262.96;2012875;88;22177;-91
2022/10/26 13:29:00;;;;;;;4.42;2.42;;;;;;;16.16;100.00;99262.23;2012226;88;21359;-90
2022/10/26 13:32:00;;;;;;;3.87;2.27;;;;;;;16.10;100.00;99263.56;2012565;88;21246;-91
2022/10/26 13:35:01;;;;;;;4.55;2.25;;;;;;;16.07;100.00;99263.95;2012413;88;21066;-90
2022/10/26 13:38:02;;;;;;;8.10;3.00;;;;;;;16.02;100.00;99265.89;2012199;88;21026;-90
2022/10/26 13:41:03;;;;;;;2.62;2.42;;;;;;;15.98;100.00;99265.97;1966251;91;21017;-92
2022/10/26 13:44:03;;;;;;;4.05;2.47;;;;;;;15.92;100.00;99264.15;1934746;92;21640;-90
2022/10/26 13:47:04;;;;;;;3.42;2.00;;;;;;;15.90;100.00;99268.79;2012781;88;21221;-92
2022/10/26 13:50:05;;;;;;;4.25;2.47;;;;;;;15.86;100.00;99266.26;2013736;87;21030;-91
2022/10/26 13:53:06;;;;;;;5.80;2.20;;;;;;;15.84;100.00;99262.50;2012720;88;21157;-92